Time;durP1;ratioP1;P1;durP2;ratioP2;P2;SDS_P1;SDS_P2;PMS_P1;PMS_P2;Temp;Humidity;BMP_temperature;BMP_pressure;BME280_temperature;BME280_humidity;BME280_pressure;Samples;Min_cycle;Max_cycle;Signal;HPM_P1;HPM_P2
2023/08/10 00:00:09;;;;;;;5.38;1.60;;;17.40;84.60;;;;;;6184706;23;20001;-81
2023/08/10 00:02:35;;;;;;;4.80;1.52;;;17.40;84.60;;;;;;6184526;23;20000;-82
2023/08/10 00:05:00;;;;;;;4.85;1.80;;;17.40;84.50;;;;;;6184470;23;20001;-82
2023/08/10 00:07:26;;;;;;;4.07;1.70;;;17.40;84.50;;;;;;6184469;23;20001;-82
2023/08/10 00:09:51;;;;;;;4.43;1.90;;;17.40;84.60;;;;;;6182750;23;20355;-82
2023/08/10 00:12:17;;;;;;;7.80;2.05;;;17.40;84.50;;;;;;6182808;23;20440;-82
2023/08/10 00:14:42;;;;;;;5.57;1.65;;;17.40;84.50;;;;;;6182617;23;20001;-82
2023/08/10 00:17:08;;;;;;;4.25;1.65;;;17.40;84.50;;;;;;6182801;23;20060;-81
2023/08/10 00:19:33;;;;;;;4.38;1.52;;;17.40;84.50;;;;;;6184920;23;20054;-81
2023/08/10 00:21:59;;;;;;;5.45;2.17;;;17.40;84.50;;;;;;6184107;23;20023;-83
2023/08/10 00:24:24;;;;;;;4.15;1.80;;;17.40;84.50;;;;;;6182528;23;20001;-81
2023/08/10 00:26:50;;;;;;;5.47;2.05;;;17.40;84.50;;;;;;6183118;23;20012;-81
2023/08/10 00:29:16;;;;;;;4.00;1.63;;;17.40;84.40;;;;;;6182726;23;20005;-83
2023/08/10 00:31:41;;;;;;;4.43;1.80;;;17.40;84.40;;;;;;6184614;23;20035;-83
2023/08/10 00:34:07;;;;;;;4.07;1.77;;;17.40;84.90;;;;;;6184434;23;20004;-81
2023/08/10 00:36:32;;;;;;;4.72;1.90;;;17.40;84.50;;;;;;6186149;23;20005;-82
2023/08/10 00:38:58;;;;;;;3.75;1.70;;;17.40;84.50;;;;;;6184660;23;20004;-83
2023/08/10 00:41:24;;;;;;;4.82;1.98;;;17.40;84.50;;;;;;6184608;23;20008;-81
2023/08/10 00:43:49;;;;;;;4.20;1.50;;;17.50;84.60;;;;;;6184466;23;20479;-81
2023/08/10 00:46:15;;;;;;;4.43;1.70;;;17.50;84.70;;;;;;6184437;23;20265;-82
2023/08/10 00:48:40;;;;;;;5.38;1.70;;;17.40;84.40;;;;;;6184728;23;20013;-81
2023/08/10 00:51:07;;;;;;;2.83;1.48;;;17.50;84.60;;;;;;6186058;23;20052;-81
2023/08/10 00:53:32;;;;;;;5.07;1.45;;;17.50;84.50;;;;;;6186155;23;20339;-82
2023/08/10 00:56:01;;;;;;;4.35;1.60;;;17.40;84.50;;;;;;6186025;23;20005;-81
2023/08/10 00:58:27;;;;;;;4.28;1.50;;;17.50;84.50;;;;;;6184661;23;20428;-82
2023/08/10 01:00:53;;;;;;;6.05;2.10;;;17.50;84.50;;;;;;6184561;23;20063;-81
2023/08/10 01:03:18;;;;;;;5.22;1.98;;;17.40;84.20;;;;;;6184422;23;20432;-82
2023/08/10 01:06:08;;;;;;;5.20;2.15;;;17.50;84.20;;;;;;6184365;23;20012;-82
2023/08/10 01:08:41;;;;;;;6.00;1.73;;;17.40;84.30;;;;;;6209781;23;20077;-82
2023/08/10 01:11:33;;;;;;;6.63;1.80;;;17.50;84.20;;;;;;6184401;23;20096;-81
2023/08/10 01:14:31;;;;;;;4.97;1.60;;;17.40;84.00;;;;;;6184046;23;20008;-81
2023/08/10 01:16:59;;;;;;;7.88;2.35;;;17.40;84.10;;;;;;6104435;23;20506;-82
2023/08/10 01:19:41;;;;;;;5.20;1.55;;;17.40;84.10;;;;;;6186039;23;20001;-82
2023/08/10 01:22:37;;;;;;;4.68;1.70;;;17.40;84.30;;;;;;6209393;23;20058;-82
2023/08/10 01:25:08;;;;;;;4.25;1.55;;;17.30;84.30;;;;;;6177030;23;20337;-82
2023/08/10 01:27:34;;;;;;;5.68;1.70;;;17.30;84.20;;;;;;6184505;23;20011;-82
2023/08/10 01:30:01;;;;;;;3.40;1.52;;;17.40;84.30;;;;;;6186353;23;20032;-82
2023/08/10 01:32:31;;;;;;;5.68;1.83;;;17.30;84.30;;;;;;6184224;23;20436;-82
2023/08/10 01:34:57;;;;;;;2.92;1.50;;;17.30;84.30;;;;;;6185564;23;19997;-81
2023/08/10 01:37:23;;;;;;;5.25;1.60;;;17.30;84.20;;;;;;6185526;23;20008;-81
2023/08/10 01:39:48;;;;;;;5.15;1.98;;;17.30;84.30;;;;;;6185601;23;19993;-81
2023/08/10 01:42:14;;;;;;;4.65;1.60;;;17.30;84.20;;;;;;6184373;23;20051;-82
2023/08/10 01:44:39;;;;;;;4.40;1.60;;;17.30;84.30;;;;;;6184069;23;20277;-81
2023/08/10 01:47:09;;;;;;;4.53;1.58;;;17.30;84.30;;;;;;6183760;23;20017;-81
2023/08/10 01:49:37;;;;;;;6.18;2.15;;;17.30;84.20;;;;;;6184103;23;20005;-82
2023/08/10 01:52:07;;;;;;;6.03;1.75;;;17.30;84.30;;;;;;6183960;23;20013;-81
2023/08/10 01:54:34;;;;;;;3.97;1.45;;;17.30;84.20;;;;;;6185496;23;20007;-81
2023/08/10 01:56:59;;;;;;;5.10;1.75;;;17.30;84.20;;;;;;6184112;23;20067;-81
2023/08/10 01:59:25;;;;;;;4.03;1.60;;;17.30;84.20;;;;;;6186457;23;20073;-81
2023/08/10 02:01:50;;;;;;;5.70;1.70;;;17.30;84.20;;;;;;6185602;23;20071;-81
2023/08/10 02:04:17;;;;;;;3.88;1.42;;;17.30;84.20;;;;;;6183701;23;20001;-82
2023/08/10 02:06:42;;;;;;;5.53;1.77;;;17.30;84.30;;;;;;6184051;23;20041;-82
2023/08/10 02:09:08;;;;;;;6.18;1.90;;;17.30;84.20;;;;;;6185977;23;20005;-83
2023/08/10 02:11:34;;;;;;;4.43;1.70;;;17.30;84.30;;;;;;6184309;23;20005;-83
2023/08/10 02:14:00;;;;;;;4.53;1.50;;;17.30;84.30;;;;;;6183758;23;20188;-80
2023/08/10 02:16:25;;;;;;;4.45;1.92;;;17.30;84.20;;;;;;6184098;23;20009;-81
2023/08/10 02:18:51;;;;;;;4.45;1.70;;;17.30;84.60;;;;;;6183894;23;20032;-81
2023/08/10 02:21:16;;;;;;;3.53;1.50;;;17.30;84.30;;;;;;6184517;23;20004;-81
2023/08/10 02:23:42;;;;;;;5.70;1.77;;;17.30;84.40;;;;;;6184355;23;20324;-81
2023/08/10 02:26:07;;;;;;;5.72;1.70;;;17.40;84.40;;;;;;6184165;23;20064;-81
2023/08/10 02:28:33;;;;;;;3.75;1.50;;;17.40;84.50;;;;;;6184218;23;20005;-81
2023/08/10 02:30:58;;;;;;;5.13;1.63;;;17.30;84.40;;;;;;6184684;23;20007;-81
2023/08/10 02:33:24;;;;;;;4.28;1.83;;;17.40;84.30;;;;;;6184120;23;20001;-82
2023/08/10 02:35:50;;;;;;;5.45;1.80;;;17.40;84.30;;;;;;6184372;23;20009;-81
2023/08/10 02:38:15;;;;;;;4.55;1.60;;;17.40;84.30;;;;;;6185924;23;20432;-82
2023/08/10 02:40:41;;;;;;;4.82;1.98;;;17.40;84.30;;;;;;6184101;23;20017;-82
2023/08/10 02:43:06;;;;;;;5.55;1.88;;;17.30;84.20;;;;;;6183669;23;20321;-83
2023/08/10 02:45:32;;;;;;;4.28;1.73;;;17.40;84.10;;;;;;6185016;23;20499;-81
2023/08/10 02:47:57;;;;;;;5.07;1.58;;;17.40;84.10;;;;;;6185712;23;20088;-81
2023/08/10 02:50:23;;;;;;;4.53;1.58;;;17.40;84.20;;;;;;6183768;23;20009;-81
2023/08/10 02:52:48;;;;;;;4.57;1.70;;;17.30;84.00;;;;;;6185047;23;20081;-81
2023/08/10 02:55:15;;;;;;;5.28;2.08;;;17.30;84.00;;;;;;6184297;23;20399;-81
2023/08/10 02:57:41;;;;;;;5.30;1.88;;;17.30;84.00;;;;;;6184176;23;20009;-82
2023/08/10 03:00:07;;;;;;;5.15;1.67;;;17.30;84.10;;;;;;6183898;23;20365;-81
2023/08/10 03:02:33;;;;;;;5.43;1.92;;;17.20;84.10;;;;;;6183779;23;20001;-82
2023/08/10 03:04:59;;;;;;;6.47;1.77;;;17.20;84.20;;;;;;6183664;23;20091;-81
2023/08/10 03:07:26;;;;;;;4.53;1.70;;;17.30;84.30;;;;;;6185732;23;20490;-82
2023/08/10 03:09:52;;;;;;;5.95;1.70;;;17.30;84.30;;;;;;6185522;23;20051;-81
2023/08/10 03:12:18;;;;;;;4.18;1.83;;;17.20;84.20;;;;;;6185888;23;20005;-81
2023/08/10 03:14:44;;;;;;;3.95;1.60;;;17.20;84.30;;;;;;6185081;23;20055;-83
2023/08/10 03:17:10;;;;;;;5.53;1.88;;;17.30;84.30;;;;;;6183382;23;20005;-82
2023/08/10 03:19:36;;;;;;;4.97;1.90;;;17.20;84.30;;;;;;6183856;23;20348;-81
2023/08/10 03:22:01;;;;;;;6.75;1.88;;;17.20;84.30;;;;;;6183541;23;20005;-82
2023/08/10 03:24:27;;;;;;;5.15;2.00;;;17.20;84.30;;;;;;6182932;23;20462;-81
2023/08/10 03:26:52;;;;;;;4.15;1.70;;;17.30;84.40;;;;;;6184995;23;20004;-81
2023/08/10 03:29:18;;;;;;;5.15;1.73;;;17.20;84.30;;;;;;6183673;23;20012;-82
2023/08/10 03:31:43;;;;;;;4.55;1.67;;;17.20;84.30;;;;;;6183141;23;20043;-82
2023/08/10 03:34:09;;;;;;;6.43;1.95;;;17.20;84.30;;;;;;6182721;23;20012;-83
2023/08/10 03:36:35;;;;;;;6.20;2.05;;;17.20;84.30;;;;;;6183155;23;20444;-81
2023/08/10 03:39:00;;;;;;;5.90;1.75;;;17.20;84.40;;;;;;6183130;23;19999;-81
2023/08/10 03:41:26;;;;;;;4.57;1.75;;;17.20;84.40;;;;;;6183092;23;20001;-81
2023/08/10 03:43:51;;;;;;;5.07;1.80;;;17.20;84.50;;;;;;6182886;23;20009;-81
2023/08/10 03:46:17;;;;;;;7.82;2.20;;;17.20;84.50;;;;;;6182664;23;20012;-82
2023/08/10 03:48:42;;;;;;;14.20;2.30;;;17.20;84.50;;;;;;6182910;23;20013;-81
2023/08/10 03:51:08;;;;;;;7.85;2.10;;;17.20;84.50;;;;;;6183189;23;20001;-81
2023/08/10 03:53:33;;;;;;;8.88;2.08;;;17.20;84.50;;;;;;6182932;23;20033;-82
2023/08/10 03:55:59;;;;;;;6.78;1.80;;;17.20;84.50;;;;;;6182961;23;20004;-82
2023/08/10 03:58:24;;;;;;;9.13;2.08;;;17.20;84.50;;;;;;6184449;23;20032;-81
2023/08/10 04:00:50;;;;;;;6.30;2.05;;;17.20;84.90;;;;;;6183044;23;20052;-81
2023/08/10 04:03:16;;;;;;;4.38;1.55;;;17.20;84.60;;;;;;6183099;23;20343;-81
2023/08/10 04:05:41;;;;;;;7.22;1.85;;;17.30;84.80;;;;;;6182727;23;20005;-82
2023/08/10 04:08:10;;;;;;;5.93;2.10;;;17.20;84.80;;;;;;6182663;23;20004;-81
2023/08/10 04:10:36;;;;;;;3.72;1.83;;;17.30;84.60;;;;;;6184509;23;20008;-82
2023/08/10 04:13:02;;;;;;;5.57;2.03;;;17.30;84.50;;;;;;6182973;23;20013;-83
2023/08/10 04:15:30;;;;;;;5.13;1.77;;;17.30;84.60;;;;;;6182769;23;20011;-82
2023/08/10 04:17:55;;;;;;;5.38;1.75;;;17.30;84.60;;;;;;6182763;23;20446;-81
2023/08/10 04:20:21;;;;;;;4.30;1.80;;;17.30;84.60;;;;;;6183225;23;20001;-82
2023/08/10 04:22:46;;;;;;;5.63;2.20;;;17.30;84.50;;;;;;6182821;23;20008;-81
2023/08/10 04:25:12;;;;;;;5.07;1.55;;;17.30;84.50;;;;;;6181766;23;20005;-81
2023/08/10 04:27:37;;;;;;;4.00;1.60;;;17.30;84.50;;;;;;6182634;23;20005;-82
2023/08/10 04:30:04;;;;;;;4.35;1.77;;;17.30;84.40;;;;;;6184229;23;20005;-81
2023/08/10 04:32:30;;;;;;;5.57;1.95;;;17.30;84.40;;;;;;6182694;23;20007;-82
2023/08/10 04:34:55;;;;;;;4.70;1.80;;;17.30;84.40;;;;;;6182282;23;20080;-82
2023/08/10 04:37:21;;;;;;;4.88;1.75;;;17.20;84.30;;;;;;6184190;23;20048;-82
2023/08/10 04:39:46;;;;;;;4.65;1.80;;;17.20;84.30;;;;;;6182245;23;20375;-82
2023/08/10 04:42:14;;;;;;;4.32;1.70;;;17.20;84.40;;;;;;6183048;23;20012;-82
2023/08/10 04:44:39;;;;;;;4.97;1.70;;;17.30;84.50;;;;;;6179135;23;20523;-83
2023/08/10 04:47:05;;;;;;;3.92;1.70;;;17.20;84.50;;;;;;6178776;23;20044;-83
2023/08/10 04:49:31;;;;;;;6.88;2.03;;;17.20;84.50;;;;;;6183909;23;20016;-81
2023/08/10 04:51:57;;;;;;;4.97;1.75;;;17.20;84.60;;;;;;6181044;23;20036;-82
2023/08/10 04:54:22;;;;;;;4.50;1.88;;;17.20;84.60;;;;;;6183774;23;20013;-81
2023/08/10 04:56:49;;;;;;;5.30;1.95;;;17.20;84.60;;;;;;6183075;23;20005;-81
2023/08/10 04:59:14;;;;;;;5.40;1.90;;;17.10;84.50;;;;;;6183673;23;20008;-81
2023/08/10 05:01:40;;;;;;;5.00;1.63;;;17.20;84.60;;;;;;6186658;23;19998;-83
2023/08/10 05:04:05;;;;;;;8.15;1.90;;;17.20;84.60;;;;;;6183089;23;20032;-82
2023/08/10 05:06:31;;;;;;;3.60;1.55;;;17.20;84.60;;;;;;6181754;23;20287;-81
2023/08/10 05:08:57;;;;;;;3.75;1.70;;;17.20;84.60;;;;;;6177404;23;20387;-83
2023/08/10 05:11:23;;;;;;;6.70;2.10;;;17.20;84.60;;;;;;6177008;23;20218;-80
2023/08/10 05:13:49;;;;;;;4.93;1.80;;;17.20;84.60;;;;;;6177793;23;20076;-80
2023/08/10 05:16:15;;;;;;;5.78;2.00;;;17.20;84.70;;;;;;6173863;23;20452;-80
2023/08/10 05:18:41;;;;;;;6.65;2.13;;;17.20;84.60;;;;;;6178075;23;20422;-80
2023/08/10 05:21:06;;;;;;;8.20;1.95;;;17.20;84.60;;;;;;6177332;23;20451;-82
2023/08/10 05:23:32;;;;;;;6.93;2.00;;;17.20;84.80;;;;;;6178428;23;20013;-80
2023/08/10 05:25:58;;;;;;;7.18;2.17;;;17.20;84.70;;;;;;6179403;23;20348;-83
2023/08/10 05:28:23;;;;;;;4.75;1.88;;;17.20;84.70;;;;;;6177772;23;20012;-81
2023/08/10 05:30:49;;;;;;;4.82;1.50;;;17.20;84.70;;;;;;6177762;23;20020;-83
2023/08/10 05:33:14;;;;;;;6.20;2.20;;;17.20;84.70;;;;;;6177263;23;20005;-83
2023/08/10 05:35:40;;;;;;;7.45;2.03;;;17.20;84.70;;;;;;6177885;23;20036;-80
2023/08/10 05:38:08;;;;;;;4.60;1.75;;;17.30;85.10;;;;;;6178375;23;20016;-80
2023/08/10 05:40:33;;;;;;;4.57;1.60;;;17.30;84.90;;;;;;6180111;23;20005;-81
2023/08/10 05:42:59;;;;;;;3.33;1.67;;;17.40;84.60;;;;;;6184412;23;20001;-80
2023/08/10 05:45:25;;;;;;;6.45;2.10;;;17.40;84.30;;;;;;6183467;23;20005;-81
2023/08/10 05:47:51;;;;;;;6.18;1.70;;;17.50;84.40;;;;;;6186674;23;20424;-79
2023/08/10 05:50:17;;;;;;;6.15;2.10;;;17.50;84.50;;;;;;6184294;23;20001;-82
2023/08/10 05:52:44;;;;;;;4.53;1.70;;;17.50;84.30;;;;;;6180981;23;20005;-81
2023/08/10 05:55:11;;;;;;;4.90;1.95;;;17.60;84.20;;;;;;6184569;23;20016;-85
2023/08/10 05:57:36;;;;;;;7.10;2.00;;;17.60;84.00;;;;;;6181570;23;20016;-81
2023/08/10 06:00:02;;;;;;;3.38;1.48;;;17.60;83.80;;;;;;6185115;23;20013;-84
2023/08/10 06:02:28;;;;;;;5.38;1.60;;;17.70;83.80;;;;;;6188204;23;20005;-81
2023/08/10 06:04:54;;;;;;;5.60;1.50;;;17.70;83.70;;;;;;6187550;23;20459;-81
2023/08/10 06:07:19;;;;;;;5.30;1.77;;;17.70;83.70;;;;;;6187774;23;20012;-80
2023/08/10 06:09:45;;;;;;;4.78;1.52;;;17.80;83.80;;;;;;6190053;23;20004;-82
2023/08/10 06:12:12;;;;;;;5.97;1.80;;;17.60;84.20;;;;;;6190282;23;20065;-83
2023/08/10 06:14:37;;;;;;;3.88;1.50;;;17.70;83.70;;;;;;6187231;23;20400;-81
2023/08/10 06:17:04;;;;;;;4.72;1.50;;;17.70;83.80;;;;;;6187768;23;20023;-79
2023/08/10 06:19:31;;;;;;;3.55;1.27;;;17.70;83.90;;;;;;6190080;23;19997;-80
2023/08/10 06:21:56;;;;;;;3.47;1.40;;;17.70;83.90;;;;;;6190007;23;20036;-78
2023/08/10 06:24:22;;;;;;;5.10;1.45;;;17.70;84.10;;;;;;6185431;23;20095;-80
2023/08/10 06:26:48;;;;;;;4.05;1.50;;;17.70;84.10;;;;;;6185820;23;20012;-80
2023/08/10 06:29:15;;;;;;;3.92;1.70;;;17.70;84.10;;;;;;6185451;23;20009;-79
2023/08/10 06:31:40;;;;;;;5.40;1.42;;;17.70;84.10;;;;;;6210478;23;20012;-81
2023/08/10 06:34:06;;;;;;;3.38;1.60;;;17.70;84.00;;;;;;6185150;23;20009;-81
2023/08/10 06:36:33;;;;;;;6.10;1.73;;;17.70;84.10;;;;;;6186945;23;20012;-80
2023/08/10 06:38:59;;;;;;;3.55;1.48;;;17.80;84.10;;;;;;6185190;23;20009;-80
2023/08/10 06:41:24;;;;;;;4.63;1.60;;;17.70;83.90;;;;;;6187075;23;20005;-80
2023/08/10 06:43:50;;;;;;;4.50;1.67;;;17.80;83.90;;;;;;6185600;23;20101;-80
2023/08/10 06:46:15;;;;;;;3.30;1.45;;;17.80;83.90;;;;;;6187344;23;20348;-80
2023/08/10 06:48:41;;;;;;;4.50;1.40;;;17.80;83.80;;;;;;6185148;23;20013;-80
2023/08/10 06:51:07;;;;;;;3.78;1.40;;;17.80;83.70;;;;;;6186671;23;20012;-80
2023/08/10 06:53:33;;;;;;;3.85;1.60;;;17.80;83.70;;;;;;6184681;23;20046;-80
2023/08/10 06:55:59;;;;;;;3.88;1.27;;;17.90;83.70;;;;;;6187270;23;20012;-79
2023/08/10 06:58:25;;;;;;;3.50;1.33;;;17.90;83.70;;;;;;6185105;23;20406;-79
2023/08/10 07:00:50;;;;;;;4.15;1.40;;;17.90;83.60;;;;;;6210446;23;20032;-80
2023/08/10 07:03:16;;;;;;;5.57;1.73;;;17.90;83.60;;;;;;6185175;23;20040;-80
2023/08/10 07:05:43;;;;;;;4.07;1.40;;;17.90;83.50;;;;;;6184297;23;20020;-80
2023/08/10 07:08:09;;;;;;;3.30;1.40;;;17.90;83.40;;;;;;6209703;23;20047;-80
2023/08/10 07:10:36;;;;;;;3.50;1.33;;;17.90;83.40;;;;;;6185123;23;20091;-80
2023/08/10 07:13:02;;;;;;;3.90;1.30;;;18.00;83.50;;;;;;6184747;23;20027;-80
2023/08/10 07:15:27;;;;;;;2.70;1.30;;;18.00;83.60;;;;;;6184617;23;20020;-79
2023/08/10 07:17:54;;;;;;;4.00;1.33;;;18.00;83.40;;;;;;6184871;23;20404;-80
2023/08/10 07:20:19;;;;;;;3.95;1.23;;;18.00;83.30;;;;;;6186536;23;19997;-81
2023/08/10 07:22:46;;;;;;;3.85;1.30;;;18.00;83.30;;;;;;6185098;23;20008;-81
2023/08/10 07:25:12;;;;;;;3.00;1.27;;;18.10;83.40;;;;;;6184428;23;20004;-80
2023/08/10 07:27:37;;;;;;;4.90;1.30;;;18.10;83.40;;;;;;6186420;23;20001;-79
2023/08/10 07:30:03;;;;;;;2.97;1.30;;;18.10;83.40;;;;;;6184588;23;20047;-79
2023/08/10 07:32:30;;;;;;;3.78;1.45;;;18.10;83.30;;;;;;6184546;23;20005;-80
2023/08/10 07:34:56;;;;;;;3.50;1.38;;;18.10;83.30;;;;;;6183688;23;20016;-80
2023/08/10 07:37:22;;;;;;;2.47;1.20;;;18.10;83.30;;;;;;6184086;23;20364;-81
2023/08/10 07:39:47;;;;;;;4.10;1.33;;;18.20;83.20;;;;;;6183849;23;20336;-80
2023/08/10 07:42:13;;;;;;;3.78;1.20;;;18.20;83.10;;;;;;6184197;23;20005;-79
2023/08/10 07:44:39;;;;;;;2.97;1.40;;;18.20;83.00;;;;;;6183912;23;20009;-79
2023/08/10 07:47:04;;;;;;;2.75;1.40;;;18.30;82.90;;;;;;6185653;23;20357;-80
2023/08/10 07:49:31;;;;;;;2.15;1.30;;;18.30;82.90;;;;;;6185747;23;20009;-80
2023/08/10 07:51:57;;;;;;;3.45;1.20;;;18.30;82.90;;;;;;6183017;23;20012;-81
2023/08/10 07:54:23;;;;;;;4.20;1.30;;;18.30;83.00;;;;;;6182515;23;20008;-79
2023/08/10 07:56:48;;;;;;;3.00;1.20;;;18.20;83.10;;;;;;6185025;23;20081;-80
2023/08/10 07:59:16;;;;;;;2.78;1.20;;;18.20;83.30;;;;;;6184917;23;19997;-80
2023/08/10 08:01:42;;;;;;;2.75;1.40;;;18.10;83.50;;;;;;6183459;23;20002;-80
2023/08/10 08:04:07;;;;;;;4.50;1.30;;;18.10;83.60;;;;;;6182664;23;20024;-79
2023/08/10 08:06:36;;;;;;;3.15;1.10;;;18.10;83.70;;;;;;6184676;23;20040;-79
2023/08/10 08:09:03;;;;;;;3.95;1.38;;;18.10;83.80;;;;;;6182846;23;20036;-79
2023/08/10 08:11:28;;;;;;;1.95;1.20;;;18.10;83.90;;;;;;6184448;23;20375;-80
2023/08/10 08:13:54;;;;;;;3.83;1.30;;;18.10;84.10;;;;;;6182741;23;20036;-80
2023/08/10 08:16:20;;;;;;;3.03;1.25;;;18.10;84.10;;;;;;6182709;23;20005;-80
2023/08/10 08:18:53;;;;;;;2.25;1.20;;;18.10;83.90;;;;;;6185056;23;20010;-80
2023/08/10 08:21:20;;;;;;;2.80;1.10;;;18.10;83.90;;;;;;6184675;23;20064;-79
2023/08/10 08:23:47;;;;;;;3.95;1.20;;;18.20;83.90;;;;;;6184309;23;20502;-79
2023/08/10 08:26:14;;;;;;;2.53;1.17;;;18.20;83.70;;;;;;6182834;23;20052;-79
2023/08/10 08:28:40;;;;;;;2.97;1.30;;;18.30;83.60;;;;;;6183073;23;20009;-79
2023/08/10 08:31:06;;;;;;;4.47;1.45;;;18.30;83.60;;;;;;6184456;23;20536;-80
2023/08/10 08:33:32;;;;;;;3.03;1.48;;;18.20;83.50;;;;;;6182593;23;20056;-80
2023/08/10 08:35:58;;;;;;;2.83;1.20;;;18.30;83.60;;;;;;6182650;23;20009;-80
2023/08/10 08:38:24;;;;;;;2.17;1.17;;;18.30;83.60;;;;;;6184290;23;19997;-80
2023/08/10 08:40:50;;;;;;;1.85;1.08;;;18.40;83.50;;;;;;6182785;23;20012;-81
2023/08/10 08:43:17;;;;;;;2.38;1.25;;;18.40;83.30;;;;;;6182807;23;20337;-80
2023/08/10 08:45:43;;;;;;;1.83;1.10;;;18.40;83.20;;;;;;6182461;23;20060;-80
2023/08/10 08:48:10;;;;;;;2.97;1.33;;;18.40;83.20;;;;;;6185867;23;20017;-80
2023/08/10 08:50:36;;;;;;;2.75;1.30;;;18.40;83.40;;;;;;6184238;23;20001;-80
2023/08/10 08:53:08;;;;;;;3.13;1.10;;;18.40;83.50;;;;;;6184247;23;20016;-80
2023/08/10 08:55:34;;;;;;;2.70;1.25;;;18.40;83.60;;;;;;6184074;23;20016;-80
2023/08/10 08:58:00;;;;;;;2.70;1.17;;;18.30;83.70;;;;;;6184669;23;20008;-80
2023/08/10 09:00:26;;;;;;;1.83;1.08;;;18.30;83.80;;;;;;6184487;23;19997;-80
2023/08/10 09:02:52;;;;;;;2.58;1.10;;;18.30;84.00;;;;;;6184682;23;20017;-81
2023/08/10 09:05:18;;;;;;;2.03;1.02;;;18.30;84.00;;;;;;6184001;23;20009;-79
2023/08/10 09:07:45;;;;;;;3.22;1.33;;;18.30;84.00;;;;;;6184626;23;20436;-80
2023/08/10 09:10:10;;;;;;;3.08;1.10;;;18.30;83.90;;;;;;6185918;23;20010;-80
2023/08/10 09:12:38;;;;;;;2.08;1.05;;;18.40;83.80;;;;;;6186115;23;20001;-81
2023/08/10 09:15:11;;;;;;;1.98;1.08;;;18.40;83.60;;;;;;6183875;23;20036;-80
2023/08/10 09:17:46;;;;;;;2.13;1.00;;;18.50;83.40;;;;;;6184269;23;20084;-79
2023/08/10 09:20:20;;;;;;;3.05;1.48;;;18.50;83.30;;;;;;6186276;23;20319;-80
2023/08/10 09:22:47;;;;;;;2.63;1.33;;;18.50;83.20;;;;;;6190639;23;20499;-80
2023/08/10 09:25:13;;;;;;;1.70;1.02;;;18.60;83.10;;;;;;6187313;23;20415;-81
2023/08/10 09:27:38;;;;;;;1.98;0.98;;;18.60;83.10;;;;;;6188671;23;20012;-80
2023/08/10 09:30:06;;;;;;;3.10;1.13;;;18.60;83.10;;;;;;6188142;23;20008;-80
2023/08/10 09:32:33;;;;;;;2.30;1.17;;;18.60;83.30;;;;;;6188040;23;20029;-81
2023/08/10 09:34:59;;;;;;;2.75;1.00;;;18.50;83.30;;;;;;6211056;23;20415;-80
2023/08/10 09:37:25;;;;;;;3.50;1.42;;;18.50;83.30;;;;;;6186014;23;20015;-80
2023/08/10 09:39:55;;;;;;;1.80;1.00;;;18.50;83.40;;;;;;6186672;23;20087;-80
2023/08/10 09:42:21;;;;;;;3.50;1.20;;;18.50;83.40;;;;;;6211867;23;19997;-80
2023/08/10 09:44:48;;;;;;;2.70;1.20;;;18.50;83.50;;;;;;6185587;23;19997;-79
2023/08/10 09:47:14;;;;;;;2.55;1.17;;;18.50;84.10;;;;;;6187804;23;20013;-80
2023/08/10 09:49:58;;;;;;;3.42;1.20;;;18.50;83.60;;;;;;6189392;23;20012;-80
2023/08/10 09:52:24;;;;;;;1.95;1.00;;;18.60;83.70;;;;;;6187234;23;20005;-80
2023/08/10 09:54:51;;;;;;;2.67;1.33;;;18.60;83.60;;;;;;6186908;23;20008;-80
2023/08/10 09:57:21;;;;;;;2.45;1.02;;;18.60;83.50;;;;;;6189485;23;20009;-80
2023/08/10 09:59:47;;;;;;;2.70;1.10;;;18.60;83.50;;;;;;6187118;23;20103;-80
2023/08/10 10:02:13;;;;;;;1.88;1.15;;;18.60;83.40;;;;;;6187379;23;20159;-80
2023/08/10 10:04:39;;;;;;;1.67;1.00;;;18.60;83.30;;;;;;6188221;23;20008;-80
2023/08/10 10:07:07;;;;;;;1.38;0.98;;;18.70;83.30;;;;;;6186564;23;20339;-80
2023/08/10 10:09:37;;;;;;;2.28;1.08;;;18.70;83.20;;;;;;6188180;23;20005;-80
2023/08/10 10:12:06;;;;;;;2.25;1.00;;;18.70;83.20;;;;;;6186550;23;20016;-80
2023/08/10 10:14:32;;;;;;;3.08;1.38;;;18.70;83.20;;;;;;6186809;23;20532;-79
2023/08/10 10:16:58;;;;;;;1.65;1.05;;;18.80;83.20;;;;;;6186313;23;20030;-80
2023/08/10 10:19:25;;;;;;;1.73;0.90;;;18.80;83.20;;;;;;6186434;23;20435;-80
2023/08/10 10:21:51;;;;;;;2.25;1.05;;;18.80;83.20;;;;;;6188762;23;20001;-80
2023/08/10 10:24:20;;;;;;;1.63;1.00;;;18.80;83.20;;;;;;6186176;23;20005;-81
2023/08/10 10:26:59;;;;;;;2.45;1.27;;;18.80;83.20;;;;;;6186669;23;20012;-80
2023/08/10 10:29:54;;;;;;;2.55;1.17;;;18.80;83.40;;;;;;6186236;23;20032;-82
2023/08/10 10:32:21;;;;;;;1.63;0.90;;;18.80;83.50;;;;;;6184445;23;20455;-80
2023/08/10 10:34:50;;;;;;;1.65;0.80;;;18.70;83.50;;;;;;6210525;23;20009;-80
2023/08/10 10:37:16;;;;;;;3.20;1.20;;;18.70;83.50;;;;;;6187959;23;20004;-80
2023/08/10 10:39:45;;;;;;;2.13;1.23;;;18.70;83.60;;;;;;6187992;23;20004;-80
2023/08/10 10:42:11;;;;;;;2.47;1.10;;;18.70;83.70;;;;;;6211461;23;20004;-80
2023/08/10 10:45:07;;;;;;;1.80;0.90;;;18.70;83.60;;;;;;6185783;23;20420;-80
2023/08/10 10:47:47;;;;;;;2.28;1.00;;;18.80;83.60;;;;;;6186020;23;20009;-79
2023/08/10 10:50:19;;;;;;;2.27;0.97;;;18.80;83.50;;;;;;6185799;23;20013;-81
2023/08/10 10:53:15;;;;;;;2.83;1.00;;;18.80;83.40;;;;;;6185873;23;20021;-80
2023/08/10 10:55:43;;;;;;;3.60;1.10;;;18.80;83.20;;;;;;6210028;23;20005;-80
2023/08/10 10:58:11;;;;;;;1.48;0.90;;;18.80;83.20;;;;;;6184877;23;20024;-80
2023/08/10 11:00:37;;;;;;;1.58;0.98;;;18.90;83.30;;;;;;6209904;23;20059;-80
2023/08/10 11:03:10;;;;;;;1.27;0.95;;;18.90;83.20;;;;;;6184873;23;20012;-79
2023/08/10 11:05:37;;;;;;;2.13;1.13;;;18.90;83.10;;;;;;6184429;23;20056;-80
2023/08/10 11:08:03;;;;;;;1.95;0.90;;;18.90;83.10;;;;;;6184575;23;20436;-80
2023/08/10 11:10:37;;;;;;;2.45;0.93;;;18.90;83.20;;;;;;6186042;23;20001;-80
2023/08/10 11:13:07;;;;;;;1.80;1.10;;;18.80;83.20;;;;;;6184490;23;20016;-80
2023/08/10 11:15:36;;;;;;;2.20;1.00;;;18.80;83.30;;;;;;6183278;23;20005;-80
2023/08/10 11:18:09;;;;;;;1.88;1.05;;;18.80;83.40;;;;;;6186122;23;20340;-80
2023/08/10 11:20:35;;;;;;;2.35;1.02;;;18.80;83.50;;;;;;6184418;23;20032;-80
2023/08/10 11:23:00;;;;;;;1.75;1.02;;;18.80;83.60;;;;;;6184243;23;20001;-80
2023/08/10 11:25:26;;;;;;;1.42;0.80;;;18.80;83.70;;;;;;6183756;23;20016;-80
2023/08/10 11:27:53;;;;;;;2.45;1.00;;;18.80;83.70;;;;;;6185679;23;19997;-80
2023/08/10 11:30:20;;;;;;;1.70;0.90;;;18.80;83.70;;;;;;6183870;23;20005;-80
2023/08/10 11:32:51;;;;;;;1.92;1.10;;;18.80;83.80;;;;;;6185462;23;20029;-80
2023/08/10 11:35:19;;;;;;;1.85;1.05;;;18.80;83.80;;;;;;6183396;23;20187;-80
2023/08/10 11:37:45;;;;;;;3.15;1.25;;;18.80;83.80;;;;;;6183534;23;20012;-80
2023/08/10 11:40:12;;;;;;;1.98;0.95;;;18.80;83.90;;;;;;6183791;23;20088;-79
2023/08/10 11:42:43;;;;;;;2.58;1.20;;;18.80;83.80;;;;;;6183772;23;20443;-80
2023/08/10 11:45:18;;;;;;;1.65;0.85;;;18.80;84.00;;;;;;6183501;23;20340;-80
2023/08/10 11:48:09;;;;;;;1.77;0.98;;;18.80;84.00;;;;;;6185254;23;20020;-80
2023/08/10 11:50:36;;;;;;;1.98;1.00;;;18.80;84.00;;;;;;6185317;23;20005;-80
2023/08/10 11:53:16;;;;;;;1.38;1.00;;;18.80;84.10;;;;;;6184791;23;20075;-80
2023/08/10 11:55:46;;;;;;;1.48;0.93;;;18.80;84.10;;;;;;6184601;23;20011;-80
2023/08/10 11:58:13;;;;;;;2.10;1.00;;;18.80;84.10;;;;;;6183263;23;20424;-80
2023/08/10 12:00:41;;;;;;;1.35;0.93;;;18.70;84.10;;;;;;6208573;23;20005;-80
2023/08/10 12:03:18;;;;;;;3.20;0.93;;;18.70;84.00;;;;;;6183332;23;20352;-81
2023/08/10 12:05:45;;;;;;;0.80;0.80;;;18.70;83.70;;;;;;6183199;23;20403;-80
2023/08/10 12:08:14;;;;;;;2.15;0.98;;;18.80;84.00;;;;;;6185087;23;20080;-79
2023/08/10 12:10:48;;;;;;;6.05;1.17;;;18.70;84.00;;;;;;6184836;23;20049;-78
2023/08/10 12:13:15;;;;;;;4.15;1.08;;;18.70;84.00;;;;;;6183466;23;20092;-81
2023/08/10 12:15:46;;;;;;;2.83;0.98;;;18.70;84.00;;;;;;6182795;23;20005;-79
2023/08/10 12:18:12;;;;;;;4.55;1.10;;;18.70;84.00;;;;;;6208019;23;20001;-78
2023/08/10 12:20:38;;;;;;;3.13;1.05;;;18.80;84.00;;;;;;6184760;23;19997;-79
2023/08/10 12:23:03;;;;;;;1.75;0.88;;;18.80;83.90;;;;;;6183013;23;20008;-80
2023/08/10 12:25:29;;;;;;;3.15;0.80;;;18.80;83.80;;;;;;6182580;23;20001;-79
2023/08/10 12:27:54;;;;;;;1.70;0.80;;;18.80;83.70;;;;;;6183637;23;20028;-81
2023/08/10 12:30:20;;;;;;;2.05;1.10;;;18.80;83.70;;;;;;6186533;23;20036;-79
2023/08/10 12:32:46;;;;;;;1.77;0.93;;;18.80;83.70;;;;;;6186706;23;20363;-79
2023/08/10 12:35:12;;;;;;;3.03;1.02;;;18.80;83.70;;;;;;6184421;23;20005;-79
2023/08/10 12:37:37;;;;;;;2.35;1.00;;;18.80;83.70;;;;;;6185096;23;20425;-79
2023/08/10 12:40:05;;;;;;;1.75;0.90;;;18.80;83.70;;;;;;6185277;23;20105;-79
2023/08/10 12:42:30;;;;;;;1.67;0.80;;;18.80;83.80;;;;;;6185098;23;20350;-79
2023/08/10 12:44:56;;;;;;;2.08;1.17;;;18.80;83.70;;;;;;6186282;23;19997;-80
2023/08/10 12:47:21;;;;;;;3.05;1.05;;;18.80;83.90;;;;;;6184338;23;20028;-80